64.7°F
Current conditions from King Hill
Updated every 5 minutes
 
  Thursday August 21, 2014

Station Historical Data
Daily Summary for June 18, 2012 Units:  Metric    English   Both
« Previous Day
Next Day »
Daily Weekly Monthly Yearly Custom
  High: Low: Average:
Temperature: 23.9 °C 17.1 °C 20.9 °C
Dew Point: 15.9 °C 12.9 °C 13.9 °C
Humidity: 77% 55% 65%
Wind Speed: 12.9km/h 0km/h 6.3km/h
Wind Gust: 29km/h - -
Wind- - SW
Pressure: 1016.1 hPa 1013.4 hPa -
Precipitation: 0 mm    
Historical Graphs
 
 
Tabular Data for June 18, 2012
Time Temperature Dew Point Pressure Wind Wind Speed Wind Gust Humidity Daily Rainfall
09:39 19.2 °C 13.3 °C 1015.8 hPa Calm   9.7 km/h 69% 0 mm
09:45 19.2 °C 13.3 °C 1016.1 hPa SW 9.7 km/h 20.9 km/h 69% 0 mm
09:49 19.2 °C 13.3 °C 1015.8 hPa SW 6.4 km/h 20.9 km/h 69% 0 mm
09:55 19.4 °C 13.6 °C 1015.8 hPa SW 4.8 km/h 17.7 km/h 69% 0 mm
09:59 19.6 °C 14.2 °C 1016.1 hPa SW 6.4 km/h 24.1 km/h 71% 0 mm
10:05 19.7 °C 13.6 °C 1016.1 hPa SW 11.3 km/h 24.1 km/h 68% 0 mm
10:09 19.5 °C 13.4 °C 1015.8 hPa SW 11.3 km/h 27.4 km/h 68% 0 mm
10:14 19.7 °C 14.1 °C 1015.8 hPa SW 3.2 km/h 27.4 km/h 70% 0 mm
10:19 20.1 °C 14 °C 1015.8 hPa SW 9.7 km/h 17.7 km/h 68% 0 mm
10:25 20.3 °C 14.2 °C 1015.8 hPa SW 4.8 km/h 19.3 km/h 68% 0 mm
10:29 20.7 °C 14.8 °C 1015.8 hPa WNW 3.2 km/h 19.3 km/h 69% 0 mm
10:35 20.8 °C 14.5 °C 1015.8 hPa SSW 8 km/h 17.7 km/h 67% 0 mm
10:39 20.7 °C 13.7 °C 1015.8 hPa SSW 12.9 km/h 27.4 km/h 64% 0 mm
10:44 20.5 °C 14.2 °C 1015.8 hPa WSW 4.8 km/h 27.4 km/h 67% 0 mm
10:49 20.3 °C 13.8 °C 1015.8 hPa SW 8 km/h 20.9 km/h 66% 0 mm
10:55 20.3 °C 14.2 °C 1015.8 hPa SW 8 km/h 20.9 km/h 68% 0 mm
10:59 20.2 °C 13.7 °C 1015.8 hPa SW 8 km/h 22.5 km/h 66% 0 mm
11:04 20.2 °C 13.6 °C 1015.8 hPa SW 8 km/h 24.1 km/h 66% 0 mm
11:09 20.2 °C 13.9 °C 1015.8 hPa SW 8 km/h 29 km/h 67% 0 mm
11:15 20.6 °C 14.4 °C 1015.8 hPa SW 6.4 km/h 29 km/h 68% 0 mm
11:19 20.6 °C 13.8 °C 1015.8 hPa SW 8 km/h 25.7 km/h 65% 0 mm
11:24 20.5 °C 13.9 °C 1015.8 hPa SSW 11.3 km/h 25.7 km/h 66% 0 mm
11:29 20.7 °C 13.8 °C 1015.8 hPa SSW 9.7 km/h 27.4 km/h 65% 0 mm
11:35 20.8 °C 13.8 °C 1015.8 hPa SW 9.7 km/h 27.4 km/h 64% 0 mm
11:39 20.7 °C 13.8 °C 1015.8 hPa SW 9.7 km/h 24.1 km/h 65% 0 mm
11:44 20.6 °C 13.8 °C 1015.8 hPa SSW 9.7 km/h 22.5 km/h 65% 0 mm
11:49 20.4 °C 14.1 °C 1015.8 hPa SSW 6.4 km/h 22.5 km/h 67% 0 mm
11:55 20.4 °C 13.9 °C 1015.8 hPa SW 6.4 km/h 20.9 km/h 66% 0 mm
11:59 20.3 °C 13.8 °C 1015.8 hPa SW 8 km/h 24.1 km/h 66% 0 mm
12:04 20.3 °C 13.6 °C 1015.8 hPa SW 9.7 km/h 24.1 km/h 65% 0 mm
12:09 20.5 °C 13.7 °C 1015.8 hPa SW 9.7 km/h 24.1 km/h 65% 0 mm
12:15 20.8 °C 14.7 °C 1015.8 hPa SSW 4.8 km/h 24.1 km/h 68% 0 mm
12:19 21.4 °C 14.6 °C 1015.8 hPa SSW 9.7 km/h 20.9 km/h 65% 0 mm
12:24 21.3 °C 13.9 °C 1015.8 hPa SSW 8 km/h 24.1 km/h 63% 0 mm
12:29 21.2 °C 14.8 °C 1015.8 hPa SW 6.4 km/h 24.1 km/h 67% 0 mm
12:35 21.4 °C 15 °C 1015.8 hPa SSW 8 km/h 24.1 km/h 67% 0 mm
12:39 21.6 °C 14.5 °C 1015.8 hPa SSW 11.3 km/h 24.1 km/h 64% 0 mm
12:44 21.8 °C 15.4 °C 1015.5 hPa SW 6.4 km/h 24.1 km/h 67% 0 mm
12:49 22 °C 14.4 °C 1015.8 hPa SSW 12.9 km/h 24.1 km/h 62% 0 mm
12:55 22.2 °C 15.1 °C 1015.8 hPa South 6.4 km/h 24.1 km/h 64% 0 mm
12:59 22.3 °C 14.4 °C 1015.5 hPa SSW 8 km/h 19.3 km/h 61% 0 mm
13:04 22.4 °C 15.3 °C 1015.5 hPa SW 6.4 km/h 20.9 km/h 64% 0 mm
13:09 22.3 °C 14.7 °C 1015.5 hPa SW 9.7 km/h 25.7 km/h 62% 0 mm
13:14 22.4 °C 15.6 °C 1015.5 hPa SSE 3.2 km/h 25.7 km/h 65% 0 mm
13:19 22.6 °C 14.9 °C 1015.5 hPa SW 3.2 km/h 19.3 km/h 62% 0 mm
13:24 22.4 °C 14 °C 1015.5 hPa SSW 6.4 km/h 19.3 km/h 59% 0 mm
13:30 22.2 °C 14.6 °C 1015.5 hPa SW 9.7 km/h 22.5 km/h 62% 0 mm
13:34 22.3 °C 14.4 °C 1015.5 hPa SW 6.4 km/h 22.5 km/h 61% 0 mm
13:39 22.6 °C 15.4 °C 1015.5 hPa SW 1.6 km/h 17.7 km/h 64% 0 mm
13:44 22.7 °C 15.3 °C 1015.5 hPa Calm   17.7 km/h 63% 0 mm
13:49 22.6 °C 14.9 °C 1015.1 hPa SSW 9.7 km/h 17.7 km/h 62% 0 mm
13:54 22.7 °C 14.8 °C 1015.1 hPa SW 8 km/h 20.9 km/h 61% 0 mm
13:59 22.7 °C 14.5 °C 1015.1 hPa SSW 8 km/h 20.9 km/h 60% 0 mm
14:04 22.4 °C 14.8 °C 1015.1 hPa SW 4.8 km/h 19.3 km/h 62% 0 mm
14:09 22.1 °C 14.2 °C 1015.1 hPa SW 6.4 km/h 25.7 km/h 61% 0 mm
14:14 21.8 °C 14 °C 1015.1 hPa SW 8 km/h 25.7 km/h 61% 0 mm
14:20 21.8 °C 14 °C 1015.1 hPa SW 11.3 km/h 24.1 km/h 61% 0 mm
14:24 21.6 °C 14.5 °C 1015.1 hPa SW 1.6 km/h 24.1 km/h 64% 0 mm
14:29 21.7 °C 14.1 °C 1015.1 hPa SW 6.4 km/h 22.5 km/h 62% 0 mm
14:35 22.2 °C 14.6 °C 1015.1 hPa SW 9.7 km/h 22.5 km/h 62% 0 mm
14:39 22.6 °C 14.9 °C 1014.8 hPa SW 6.4 km/h 22.5 km/h 62% 0 mm
14:44 23.1 °C 14.9 °C 1014.8 hPa SW 8 km/h 22.5 km/h 60% 0 mm
14:49 22.9 °C 14.2 °C 1014.8 hPa SW 11.3 km/h 24.1 km/h 58% 0 mm
14:54 22.8 °C 13.9 °C 1014.8 hPa SW 9.7 km/h 24.1 km/h 57% 0 mm
14:59 22.6 °C 14.2 °C 1014.8 hPa SSW 6.4 km/h 17.7 km/h 59% 0 mm
15:04 22.3 °C 13.7 °C 1014.8 hPa SW 8 km/h 25.7 km/h 58% 0 mm
15:09 21.9 °C 13.5 °C 1014.8 hPa SW 4.8 km/h 25.7 km/h 59% 0 mm
15:14 21.7 °C 14.4 °C 1014.8 hPa SW 4.8 km/h 19.3 km/h 63% 0 mm
15:19 21.7 °C 13.4 °C 1014.8 hPa SSW 6.4 km/h 24.1 km/h 59% 0 mm
15:24 21.8 °C 13.7 °C 1014.8 hPa SSW 3.2 km/h 24.1 km/h 60% 0 mm
15:29 21.8 °C 13.7 °C 1014.8 hPa SSW 6.4 km/h 17.7 km/h 60% 0 mm
15:34 21.7 °C 13.4 °C 1014.8 hPa SW 9.7 km/h 22.5 km/h 59% 0 mm
15:39 21.8 °C 13.9 °C 1014.8 hPa Calm   22.5 km/h 61% 0 mm
15:44 21.8 °C 13.7 °C 1014.8 hPa SW 8 km/h 20.9 km/h 60% 0 mm
15:49 21.8 °C 13.7 °C 1014.8 hPa SSW 8 km/h 22.5 km/h 60% 0 mm
15:54 22.1 °C 14.7 °C 1014.8 hPa SW 4.8 km/h 22.5 km/h 63% 0 mm
15:59 22.6 °C 14.7 °C 1014.8 hPa SW 8 km/h 17.7 km/h 61% 0 mm
16:04 23.2 °C 14.5 °C 1014.4 hPa SW 4.8 km/h 17.7 km/h 58% 0 mm
16:09 23.5 °C 14.2 °C 1014.4 hPa SW 6.4 km/h 20.9 km/h 56% 0 mm
16:14 23.7 °C 14.7 °C 1014.4 hPa SW 12.9 km/h 20.9 km/h 57% 0 mm
16:19 23.6 °C 15.4 °C 1014.4 hPa SSW 1.6 km/h 20.9 km/h 60% 0 mm
16:24 23.6 °C 14.6 °C 1014.4 hPa SW 8 km/h 19.3 km/h 57% 0 mm
16:29 23.7 °C 14.9 °C 1014.4 hPa SW 8 km/h 20.9 km/h 58% 0 mm
16:34 23.7 °C 14.9 °C 1014.4 hPa SSW 11.3 km/h 20.9 km/h 58% 0 mm
16:39 23.4 °C 15.5 °C 1014.4 hPa SSW 4.8 km/h 20.9 km/h 61% 0 mm
16:44 23.4 °C 14.7 °C 1014.4 hPa SSW 8 km/h 20.9 km/h 58% 0 mm
16:49 23.6 °C 15.1 °C 1014.4 hPa SSW 8 km/h 24.1 km/h 59% 0 mm
16:54 23.8 °C 15.6 °C 1014.1 hPa SW 3.2 km/h 24.1 km/h 60% 0 mm
16:59 23.9 °C 14.9 °C 1014.1 hPa SSW 11.3 km/h 29 km/h 57% 0 mm
17:04 23.9 °C 14.6 °C 1014.1 hPa SW 9.7 km/h 29 km/h 56% 0 mm
17:09 23.9 °C 15.9 °C 1013.8 hPa South 3.2 km/h 25.7 km/h 61% 0 mm
17:14 23.8 °C 14.6 °C 1013.8 hPa SSW 9.7 km/h 22.5 km/h 56% 0 mm
17:19 23.6 °C 14.3 °C 1013.8 hPa SSW 8 km/h 22.5 km/h 56% 0 mm
17:24 23 °C 14.1 °C 1013.8 hPa SSW 9.7 km/h 20.9 km/h 57% 0 mm
17:29 22.8 °C 14.2 °C 1013.8 hPa SSW 4.8 km/h 20.9 km/h 58% 0 mm
17:34 23.1 °C 14.1 °C 1013.8 hPa SSW 3.2 km/h 20.9 km/h 57% 0 mm
17:39 23.3 °C 14 °C 1013.8 hPa SW 6.4 km/h 20.9 km/h 56% 0 mm
17:44 23.4 °C 14.4 °C 1013.8 hPa SW 3.2 km/h 20.9 km/h 57% 0 mm
17:49 23.4 °C 14.1 °C 1013.8 hPa SSW 9.7 km/h 20.9 km/h 56% 0 mm
17:54 23.4 °C 14.1 °C 1013.4 hPa SW 4.8 km/h 20.9 km/h 56% 0 mm
17:59 23.5 °C 14.5 °C 1013.4 hPa SW 1.6 km/h 19.3 km/h 57% 0 mm
18:04 23.5 °C 14.2 °C 1013.4 hPa SW 4.8 km/h 19.3 km/h 56% 0 mm
18:09 23.6 °C 14 °C 1013.4 hPa SSW 6.4 km/h 20.9 km/h 55% 0 mm
18:14 23.4 °C 13.9 °C 1013.4 hPa SW 6.4 km/h 20.9 km/h 55% 0 mm
18:19 23.2 °C 13.9 °C 1013.4 hPa SW 3.2 km/h 19.3 km/h 56% 0 mm
18:24 22.9 °C 14 °C 1013.4 hPa SW 4.8 km/h 20.9 km/h 57% 0 mm
18:29 22.9 °C 13.7 °C 1013.4 hPa SW 4.8 km/h 20.9 km/h 56% 0 mm
18:34 22.8 °C 13.6 °C 1013.4 hPa SSW 6.4 km/h 24.1 km/h 56% 0 mm
18:39 22.9 °C 13.7 °C 1013.4 hPa SSW 8 km/h 24.1 km/h 56% 0 mm
18:44 22.8 °C 14.2 °C 1013.4 hPa SW 3.2 km/h 24.1 km/h 58% 0 mm
18:49 22.7 °C 14.1 °C 1013.4 hPa SSW 8 km/h 14.5 km/h 58% 0 mm
18:54 22.4 °C 14.1 °C 1013.8 hPa SW 9.7 km/h 19.3 km/h 59% 0 mm
18:59 22.3 °C 14.2 °C 1013.8 hPa SW 8 km/h 19.3 km/h 60% 0 mm
19:04 22.2 °C 14.1 °C 1013.8 hPa SW 6.4 km/h 19.3 km/h 60% 0 mm
19:09 22.2 °C 14.1 °C 1013.8 hPa SSW 6.4 km/h 19.3 km/h 60% 0 mm
19:14 22.2 °C 14.3 °C 1013.8 hPa SSW 3.2 km/h 17.7 km/h 61% 0 mm
19:19 22 °C 14.2 °C 1013.8 hPa SW 3.2 km/h 11.3 km/h 61% 0 mm
19:24 21.8 °C 14.2 °C 1013.8 hPa SW 3.2 km/h 12.9 km/h 62% 0 mm
19:29 21.4 °C 14.1 °C 1013.8 hPa SW 1.6 km/h 12.9 km/h 63% 0 mm
19:34 21.1 °C 14 °C 1014.1 hPa SW 6.4 km/h 14.5 km/h 64% 0 mm
19:39 20.8 °C 13.9 °C 1014.1 hPa SSW 3.2 km/h 14.5 km/h 65% 0 mm
19:44 20.6 °C 14 °C 1014.1 hPa SW 4.8 km/h 16.1 km/h 66% 0 mm
19:49 20.3 °C 13.8 °C 1014.1 hPa SSW 3.2 km/h 16.1 km/h 66% 0 mm
19:54 20.2 °C 13.6 °C 1014.4 hPa SSW 9.7 km/h 16.1 km/h 66% 0 mm
19:59 20 °C 13.7 °C 1014.4 hPa SSW 4.8 km/h 16.1 km/h 67% 0 mm
20:04 19.8 °C 13.6 °C 1014.4 hPa SW 3.2 km/h 17.7 km/h 67% 0 mm
20:09 19.7 °C 13.7 °C 1014.4 hPa SSW 1.6 km/h 17.7 km/h 68% 0 mm
20:14 19.6 °C 13.7 °C 1014.4 hPa SW 6.4 km/h 16.1 km/h 69% 0 mm
20:19 19.5 °C 13.7 °C 1014.4 hPa SW 3.2 km/h 14.5 km/h 69% 0 mm
20:24 19.3 °C 13.5 °C 1014.8 hPa SSW 6.4 km/h 16.1 km/h 69% 0 mm
20:29 19.3 °C 13.4 °C 1014.4 hPa SW 4.8 km/h 16.1 km/h 69% 0 mm
20:34 19.1 °C 13.5 °C 1014.4 hPa SW 6.4 km/h 16.1 km/h 70% 0 mm
20:39 19.1 °C 13.4 °C 1014.4 hPa SSW 3.2 km/h 17.7 km/h 70% 0 mm
20:44 19 °C 13.2 °C 1014.8 hPa SSW 8 km/h 19.3 km/h 69% 0 mm
20:49 19 °C 13.2 °C 1014.8 hPa SW 8 km/h 19.3 km/h 69% 0 mm
20:54 19 °C 13.2 °C 1014.8 hPa SSW 6.4 km/h 20.9 km/h 69% 0 mm
20:59 18.9 °C 13.1 °C 1014.8 hPa SSW 4.8 km/h 20.9 km/h 69% 0 mm
21:04 18.8 °C 13.2 °C 1014.8 hPa SSW 4.8 km/h 17.7 km/h 70% 0 mm
21:09 18.8 °C 13.2 °C 1014.8 hPa SW 1.6 km/h 19.3 km/h 70% 0 mm
21:14 18.8 °C 13.1 °C 1014.8 hPa SSW 8 km/h 19.3 km/h 69% 0 mm
21:19 18.8 °C 13.2 °C 1014.8 hPa SW 1.6 km/h 19.3 km/h 70% 0 mm
21:24 18.8 °C 13.2 °C 1014.8 hPa SSW 9.7 km/h 25.7 km/h 70% 0 mm
21:29 18.8 °C 13.2 °C 1014.8 hPa SSW 6.4 km/h 25.7 km/h 70% 0 mm
21:34 18.8 °C 13.2 °C 1014.8 hPa SW 1.6 km/h 19.3 km/h 70% 0 mm
21:39 18.8 °C 13.2 °C 1014.8 hPa SSW 3.2 km/h 17.7 km/h 70% 0 mm
21:44 18.7 °C 13.2 °C 1014.8 hPa SSW 6.4 km/h 20.9 km/h 70% 0 mm
21:50 18.7 °C 13.3 °C 1014.8 hPa SSW 1.6 km/h 20.9 km/h 71% 0 mm
21:59 18.5 °C 13.2 °C 1015.1 hPa SSW 4.8 km/h 17.7 km/h 71% 0 mm
22:04 18.4 °C 13.1 °C 1015.1 hPa SW 4.8 km/h 17.7 km/h 71% 0 mm
22:09 18.3 °C 13.2 °C 1015.1 hPa SSW 6.4 km/h 14.5 km/h 72% 0 mm
22:14 18.3 °C 13.2 °C 1015.1 hPa SW 4.8 km/h 14.5 km/h 72% 0 mm
22:19 18.1 °C 13.2 °C 1015.1 hPa SSW 6.4 km/h 11.3 km/h 73% 0 mm
22:24 18 °C 13.1 °C 1015.1 hPa SSW 4.8 km/h 11.3 km/h 73% 0 mm
22:29 17.9 °C 13.2 °C 1015.5 hPa SW 4.8 km/h 14.5 km/h 74% 0 mm
22:34 17.9 °C 13.2 °C 1015.5 hPa SSW 3.2 km/h 16.1 km/h 74% 0 mm
22:39 17.9 °C 13.2 °C 1015.5 hPa SW 3.2 km/h 16.1 km/h 74% 0 mm
22:44 17.8 °C 13.1 °C 1015.1 hPa SSW 3.2 km/h 14.5 km/h 74% 0 mm
22:49 17.7 °C 13.2 °C 1015.1 hPa SSW 4.8 km/h 12.9 km/h 75% 0 mm
22:54 17.6 °C 13.1 °C 1015.5 hPa SSW 1.6 km/h 12.9 km/h 75% 0 mm
22:59 17.5 °C 13 °C 1015.5 hPa SSW 6.4 km/h 14.5 km/h 75% 0 mm
23:04 17.5 °C 13 °C 1015.5 hPa SSW 3.2 km/h 16.1 km/h 75% 0 mm
23:09 17.4 °C 12.9 °C 1015.5 hPa SW 4.8 km/h 16.1 km/h 75% 0 mm
23:14 17.4 °C 13.1 °C 1015.5 hPa SW 4.8 km/h 14.5 km/h 76% 0 mm
23:19 17.4 °C 13.2 °C 1015.5 hPa SSW 6.4 km/h 20.9 km/h 76% 0 mm
23:24 17.4 °C 13.1 °C 1015.5 hPa SSW 4.8 km/h 20.9 km/h 76% 0 mm
23:29 17.4 °C 13.1 °C 1015.5 hPa SSW 3.2 km/h 17.7 km/h 76% 0 mm
23:34 17.3 °C 13.1 °C 1015.5 hPa SW 3.2 km/h 14.5 km/h 76% 0 mm
23:39 17.3 °C 13 °C 1015.5 hPa SW 1.6 km/h 14.5 km/h 76% 0 mm
23:44 17.2 °C 13.2 °C 1015.5 hPa SSW 4.8 km/h 16.1 km/h 77% 0 mm
23:49 17.2 °C 13.2 °C 1015.5 hPa SW 3.2 km/h 16.1 km/h 77% 0 mm
23:54 17.2 °C 13.1 °C 1015.5 hPa SSW 3.2 km/h 14.5 km/h 77% 0 mm
23:59 17.1 °C 13.1 °C 1015.5 hPa SW 6.4 km/h 14.5 km/h 77% 0 mm
Westford Weather
Compliments of Weather Underground

 
 
Current Radar Loop:

Copyright © WestfordWeather.net 2007-2014. All rights reserved.